Time;durP1;ratioP1;P1;durP2;ratioP2;P2;SDS_P1;SDS_P2;PMS_P1;PMS_P2;Temp;Humidity;BMP_temperature;BMP_pressure;BME280_temperature;BME280_humidity;BME280_pressure;Samples;Min_cycle;Max_cycle;Signal;HPM_P1;HPM_P2
2023/03/16 00:00:46;;;;;;;29.70;11.93;;;1.00;99.90;;;;;;4789407;30;20677;-83
2023/03/16 00:03:31;;;;;;;28.93;11.73;;;0.90;99.90;;;;;;4788780;30;20215;-81
2023/03/16 00:05:59;;;;;;;27.40;11.40;;;0.90;99.90;;;;;;4790232;30;20211;-81
2023/03/16 00:08:26;;;;;;;27.40;11.73;;;0.90;99.90;;;;;;4791914;30;20207;-82
2023/03/16 00:13:29;;;;;;;30.73;11.63;;;1.00;99.90;;;;;;4857620;24;20251;-85
2023/03/16 00:15:59;;;;;;;32.47;11.70;;;1.10;99.90;;;;;;4826116;29;20679;-83
2023/03/16 00:18:27;;;;;;;26.20;12.17;;;1.10;99.90;;;;;;4824342;29;20225;-82
2023/03/16 00:21:01;;;;;;;28.47;12.20;;;1.00;99.90;;;;;;4808015;29;20199;-85
2023/03/16 00:23:28;;;;;;;28.07;11.07;;;1.10;99.90;;;;;;4807755;29;20264;-83
2023/03/16 00:25:57;;;;;;;28.57;11.43;;;1.00;99.90;;;;;;4823979;29;20214;-81
2023/03/16 00:28:26;;;;;;;27.00;11.53;;;0.80;99.90;;;;;;4808981;29;20211;-83
2023/03/16 00:30:57;;;;;;;25.73;11.73;;;0.70;99.90;;;;;;4823553;29;20231;-83
2023/03/16 00:33:26;;;;;;;28.27;11.50;;;0.70;99.90;;;;;;4806950;29;20241;-83
2023/03/16 00:36:00;;;;;;;27.23;11.83;;;0.60;99.90;;;;;;4797162;29;20665;-83
2023/03/16 00:38:33;;;;;;;31.17;11.80;;;0.40;99.90;;;;;;4808311;29;20210;-79
2023/03/16 00:41:04;;;;;;;23.90;10.77;;;0.40;99.90;;;;;;4807580;29;20251;-81
2023/03/16 00:43:39;;;;;;;26.17;11.17;;;0.40;99.90;;;;;;4807719;29;20203;-82
2023/03/16 00:46:12;;;;;;;28.97;11.17;;;0.40;99.90;;;;;;4807620;29;20217;-82
2023/03/16 00:48:42;;;;;;;25.80;10.93;;;0.40;99.90;;;;;;4807174;29;20230;-83
2023/03/16 00:51:12;;;;;;;23.30;10.43;;;0.40;99.90;;;;;;4807701;29;20318;-80
2023/03/16 00:53:41;;;;;;;31.23;11.37;;;0.30;99.90;;;;;;4807586;29;20203;-81
2023/03/16 00:56:08;;;;;;;33.43;11.60;;;0.30;99.90;;;;;;4823690;29;20210;-81
2023/03/16 00:58:37;;;;;;;26.40;10.80;;;0.30;99.90;;;;;;4804681;29;20206;-82
2023/03/16 01:01:07;;;;;;;24.17;10.63;;;0.40;99.90;;;;;;4806920;29;20672;-79
2023/03/16 01:03:35;;;;;;;26.47;11.13;;;0.60;99.90;;;;;;4807064;29;20617;-78
2023/03/16 01:06:09;;;;;;;25.37;10.73;;;0.40;99.90;;;;;;4807102;29;20650;-83
2023/03/16 01:08:39;;;;;;;27.23;10.63;;;0.40;99.90;;;;;;4823817;29;20195;-82
2023/03/16 01:11:18;;;;;;;24.63;10.47;;;0.40;99.90;;;;;;4806640;29;20270;-83
2023/03/16 01:13:46;;;;;;;32.30;11.60;;;0.40;99.90;;;;;;4806616;24;20265;-85
2023/03/16 01:16:22;;;;;;;28.77;10.73;;;0.40;99.90;;;;;;4793016;29;20206;-85
2023/03/16 01:18:51;;;;;;;28.03;11.37;;;0.40;99.90;;;;;;4806910;29;20200;-83
2023/03/16 01:21:20;;;;;;;27.90;11.20;;;0.30;99.90;;;;;;4807066;29;20290;-85
2023/03/16 01:23:47;;;;;;;26.87;11.23;;;0.40;99.90;;;;;;4806895;29;20209;-85
2023/03/16 01:26:16;;;;;;;25.00;11.00;;;0.30;99.90;;;;;;4805682;29;20210;-84
2023/03/16 01:28:43;;;;;;;29.10;11.30;;;0.30;99.90;;;;;;4788797;29;20204;-84
2023/03/16 01:31:13;;;;;;;28.40;11.30;;;0.30;99.90;;;;;;4788763;29;20235;-85
2023/03/16 01:33:41;;;;;;;26.73;11.20;;;0.30;99.90;;;;;;4788781;29;20251;-83
2023/03/16 01:36:14;;;;;;;27.33;11.27;;;0.20;99.90;;;;;;4813410;29;20284;-83
2023/03/16 01:38:41;;;;;;;26.50;10.90;;;0.20;99.90;;;;;;4791819;29;20204;-83
2023/03/16 01:41:09;;;;;;;23.87;10.87;;;0.30;99.90;;;;;;4823039;29;20552;-85
2023/03/16 01:43:46;;;;;;;25.87;10.67;;;0.30;99.90;;;;;;4823603;29;20281;-83
2023/03/16 01:46:26;;;;;;;23.30;10.00;;;0.30;99.90;;;;;;4806773;29;20210;-84
2023/03/16 01:49:06;;;;;;;27.23;11.63;;;0.20;99.90;;;;;;4792104;29;20225;-84
2023/03/16 01:51:42;;;;;;;27.70;10.80;;;-0.10;99.90;;;;;;4807303;29;20237;-83
2023/03/16 01:54:17;;;;;;;25.23;10.80;;;0.00;99.90;;;;;;4806631;29;20536;-84
2023/03/16 01:56:54;;;;;;;30.17;11.73;;;0.00;99.90;;;;;;4806762;29;20641;-84
2023/03/16 01:59:26;;;;;;;31.87;12.23;;;0.00;99.90;;;;;;4806518;29;20727;-83
2023/03/16 02:01:54;;;;;;;28.00;11.60;;;0.00;99.90;;;;;;4823019;29;20679;-83
2023/03/16 02:04:41;;;;;;;27.83;12.63;;;0.00;99.90;;;;;;4806349;29;20202;-84
2023/03/16 02:07:08;;;;;;;29.43;11.67;;;0.00;99.90;;;;;;4823827;29;20610;-83
2023/03/16 02:09:41;;;;;;;28.87;11.57;;;0.10;99.90;;;;;;4800931;29;20227;-83
2023/03/16 02:12:17;;;;;;;29.73;11.90;;;0.00;99.90;;;;;;4790019;29;20225;-83
2023/03/16 02:14:49;;;;;;;28.90;11.47;;;0.00;99.90;;;;;;4789450;29;20215;-83
2023/03/16 02:17:19;;;;;;;28.20;12.03;;;-0.10;99.90;;;;;;4809064;29;20213;-84
2023/03/16 02:19:59;;;;;;;27.40;11.67;;;0.00;99.90;;;;;;4788527;29;20211;-84
2023/03/16 02:22:26;;;;;;;30.10;12.07;;;-0.20;99.90;;;;;;4808866;29;20205;-85
2023/03/16 02:24:54;;;;;;;29.03;11.60;;;-0.20;99.90;;;;;;4805692;29;20644;-83
2023/03/16 02:28:02;;;;;;;27.07;11.30;;;-0.30;99.90;;;;;;4804279;29;20500;-84
2023/03/16 02:30:29;;;;;;;29.57;11.53;;;-0.30;99.90;;;;;;4771413;29;20226;-83
2023/03/16 02:32:56;;;;;;;30.67;11.87;;;-0.10;99.90;;;;;;4817705;24;20258;-83
2023/03/16 02:35:23;;;;;;;26.20;11.20;;;-0.30;99.90;;;;;;4806468;29;20203;-84
2023/03/16 02:38:04;;;;;;;31.77;10.73;;;-0.40;99.90;;;;;;4806973;29;20208;-84
2023/03/16 02:40:33;;;;;;;28.03;10.77;;;-0.50;99.90;;;;;;4809901;29;20248;-83
2023/03/16 02:43:08;;;;;;;26.10;10.80;;;-0.40;99.90;;;;;;4809852;29;20214;-83
2023/03/16 02:45:50;;;;;;;25.97;11.10;;;-0.30;99.90;;;;;;4825955;29;20205;-83
2023/03/16 02:48:43;;;;;;;24.57;10.40;;;-0.10;99.90;;;;;;4795252;29;20215;-82
2023/03/16 02:51:10;;;;;;;25.37;10.20;;;-0.50;99.90;;;;;;4751909;30;20239;-83
2023/03/16 02:53:37;;;;;;;25.63;10.37;;;-0.40;99.90;;;;;;4722460;30;20212;-83
2023/03/16 02:56:04;;;;;;;24.07;10.77;;;-0.50;99.90;;;;;;4737306;30;20221;-83
2023/03/16 02:58:32;;;;;;;29.47;11.20;;;-0.50;99.90;;;;;;4737042;30;20220;-82
2023/03/16 03:00:59;;;;;;;29.20;11.63;;;-0.40;99.90;;;;;;4751776;30;20653;-82
2023/03/16 03:03:26;;;;;;;27.80;11.07;;;-0.40;99.90;;;;;;4751989;30;20211;-83
2023/03/16 03:05:53;;;;;;;27.53;11.63;;;-0.30;99.90;;;;;;4737079;30;20242;-84
2023/03/16 03:08:21;;;;;;;29.60;12.20;;;-0.40;99.90;;;;;;4754256;30;20220;-83
2023/03/16 03:10:48;;;;;;;34.57;12.37;;;-0.40;99.90;;;;;;4737847;30;20338;-82
2023/03/16 03:13:15;;;;;;;28.40;12.57;;;-0.50;99.90;;;;;;4734118;30;20210;-82
2023/03/16 03:15:42;;;;;;;30.00;13.30;;;-0.50;99.90;;;;;;4719090;30;20709;-83
2023/03/16 03:18:09;;;;;;;32.90;13.30;;;-0.60;99.90;;;;;;4734230;30;20607;-82
2023/03/16 03:20:36;;;;;;;33.10;14.27;;;-0.50;99.90;;;;;;4734592;30;20251;-82
2023/03/16 03:23:02;;;;;;;34.77;14.23;;;-0.60;99.90;;;;;;4733753;30;20220;-83
2023/03/16 03:25:33;;;;;;;37.83;14.57;;;-0.70;99.90;;;;;;4734693;30;20680;-84
2023/03/16 03:28:04;;;;;;;35.27;14.47;;;-0.70;99.90;;;;;;4753728;30;20572;-84
2023/03/16 03:30:31;;;;;;;32.30;14.80;;;-0.70;99.90;;;;;;4789157;30;20706;-85
2023/03/16 03:32:58;;;;;;;35.73;14.30;;;-0.70;99.90;;;;;;4758564;30;20237;-84
2023/03/16 03:35:25;;;;;;;31.43;14.73;;;-0.70;99.90;;;;;;4768026;30;20208;-85
2023/03/16 03:37:52;;;;;;;33.17;14.80;;;-0.70;99.90;;;;;;4770201;30;20228;-84
2023/03/16 03:40:19;;;;;;;34.53;14.27;;;-0.70;99.90;;;;;;4769693;30;20236;-83
2023/03/16 03:42:47;;;;;;;34.43;14.53;;;-0.70;99.90;;;;;;4769933;30;20204;-84
2023/03/16 03:45:14;;;;;;;32.47;14.17;;;-0.70;99.90;;;;;;4783886;30;20210;-81
2023/03/16 03:47:42;;;;;;;36.77;15.03;;;-0.80;99.90;;;;;;4803082;29;20289;-82
2023/03/16 03:50:12;;;;;;;34.97;14.43;;;-0.80;99.90;;;;;;4787305;29;20568;-83
2023/03/16 03:52:40;;;;;;;32.50;14.33;;;-0.80;99.90;;;;;;4788329;30;20298;-81
2023/03/16 03:55:07;;;;;;;33.07;14.10;;;-0.80;99.90;;;;;;4788935;30;20207;-82
2023/03/16 03:57:35;;;;;;;33.27;13.87;;;-0.90;99.90;;;;;;4787433;30;20217;-81
2023/03/16 04:00:08;;;;;;;37.07;14.50;;;-1.00;99.90;;;;;;4788163;30;20249;-83
2023/03/16 04:02:35;;;;;;;36.83;14.90;;;-1.00;99.90;;;;;;4787152;30;20243;-84
2023/03/16 04:05:02;;;;;;;32.50;14.90;;;-1.00;99.90;;;;;;4788373;30;20209;-83
2023/03/16 04:07:29;;;;;;;32.07;14.20;;;-0.90;99.90;;;;;;4787245;30;20203;-81
2023/03/16 04:09:56;;;;;;;34.63;15.00;;;-0.90;99.90;;;;;;4788674;29;20223;-84
2023/03/16 04:12:23;;;;;;;35.03;14.97;;;-0.90;99.90;;;;;;4786959;30;20298;-81
2023/03/16 04:14:50;;;;;;;31.37;14.77;;;-0.90;99.90;;;;;;4788756;30;20230;-81
2023/03/16 04:17:18;;;;;;;33.77;14.53;;;-0.70;99.90;;;;;;4769777;30;20249;-81
2023/03/16 04:19:45;;;;;;;32.50;14.60;;;-0.90;99.90;;;;;;4752685;30;20801;-84
2023/03/16 04:22:12;;;;;;;34.90;15.20;;;-0.90;99.90;;;;;;4751711;30;20759;-85
2023/03/16 04:24:39;;;;;;;38.67;15.30;;;-0.90;99.90;;;;;;4758829;30;20201;-83
2023/03/16 04:27:06;;;;;;;37.73;15.70;;;-0.80;99.90;;;;;;4770794;30;20295;-79
2023/03/16 04:29:33;;;;;;;35.43;15.80;;;-0.70;99.90;;;;;;4782233;30;20300;-82
2023/03/16 04:31:59;;;;;;;35.80;15.50;;;-0.80;99.90;;;;;;4768948;30;20240;-82
2023/03/16 04:34:27;;;;;;;41.50;16.07;;;-0.90;99.90;;;;;;4768780;30;20199;-84
2023/03/16 04:36:53;;;;;;;36.83;15.30;;;-1.10;99.90;;;;;;4770124;30;20205;-83
2023/03/16 04:39:20;;;;;;;34.97;15.37;;;-1.10;99.90;;;;;;4768959;30;20242;-83
2023/03/16 04:41:48;;;;;;;37.90;15.67;;;-1.00;99.90;;;;;;4768600;30;20682;-82
2023/03/16 04:44:16;;;;;;;34.03;14.93;;;-1.10;99.90;;;;;;4770078;30;20559;-80
2023/03/16 04:46:43;;;;;;;31.47;15.50;;;-1.00;99.90;;;;;;4768807;30;20558;-80
2023/03/16 04:49:10;;;;;;;33.17;16.10;;;-1.00;99.90;;;;;;4769125;30;20614;-80
2023/03/16 04:51:39;;;;;;;30.43;15.00;;;-0.90;99.90;;;;;;4769732;30;20228;-84
2023/03/16 04:54:06;;;;;;;34.47;15.23;;;-1.00;99.90;;;;;;4770039;30;20273;-80
2023/03/16 04:56:33;;;;;;;33.93;14.40;;;-1.00;99.90;;;;;;4768122;30;20306;-79
2023/03/16 04:59:00;;;;;;;36.83;15.00;;;-0.90;99.90;;;;;;4768436;30;20674;-80
2023/03/16 05:01:27;;;;;;;32.13;14.93;;;-0.90;99.90;;;;;;4767537;30;20224;-79
2023/03/16 05:03:54;;;;;;;37.63;15.50;;;-0.70;99.90;;;;;;4768381;30;20576;-81
2023/03/16 05:06:23;;;;;;;33.57;15.53;;;-1.00;99.90;;;;;;4769662;30;20286;-81
2023/03/16 05:08:50;;;;;;;36.50;16.43;;;-1.10;99.90;;;;;;4769527;30;20287;-81
2023/03/16 05:11:17;;;;;;;34.40;15.63;;;-0.80;99.90;;;;;;4768117;30;20346;-81
2023/03/16 05:13:44;;;;;;;34.60;16.10;;;-1.00;99.90;;;;;;4753484;30;20269;-84
2023/03/16 05:16:11;;;;;;;37.13;16.43;;;-1.00;99.90;;;;;;4768554;30;20238;-83
2023/03/16 05:18:38;;;;;;;35.10;15.63;;;-1.00;99.90;;;;;;4767949;30;20193;-82
2023/03/16 05:21:05;;;;;;;37.00;16.17;;;-0.80;99.90;;;;;;4766961;30;20672;-83
2023/03/16 05:23:32;;;;;;;36.80;16.70;;;-0.90;99.90;;;;;;4767948;30;20219;-82
2023/03/16 05:25:59;;;;;;;36.90;15.60;;;-0.70;99.90;;;;;;4769346;30;20239;-81
2023/03/16 05:28:27;;;;;;;35.53;16.27;;;-0.60;99.90;;;;;;4768112;30;20940;-81
2023/03/16 05:30:55;;;;;;;35.70;16.20;;;-0.80;99.90;;;;;;4767769;30;20294;-81
2023/03/16 05:33:24;;;;;;;36.40;16.23;;;-0.80;99.90;;;;;;4769358;29;20309;-83
2023/03/16 05:35:51;;;;;;;38.40;16.33;;;-0.80;99.90;;;;;;4787758;30;20269;-84
2023/03/16 05:38:18;;;;;;;31.30;15.17;;;-0.50;99.90;;;;;;4787378;30;20293;-84
2023/03/16 05:40:45;;;;;;;30.57;15.23;;;-0.70;99.90;;;;;;4785453;30;20242;-81
2023/03/16 05:43:12;;;;;;;35.80;16.43;;;-0.70;99.90;;;;;;4785676;30;20310;-84
2023/03/16 05:45:39;;;;;;;33.63;16.17;;;-0.80;99.90;;;;;;4785686;30;20219;-81
2023/03/16 05:48:08;;;;;;;37.33;15.90;;;-0.60;99.90;;;;;;4786097;30;20311;-81
2023/03/16 05:50:34;;;;;;;33.00;15.93;;;-0.60;99.90;;;;;;4785523;30;20204;-81
2023/03/16 05:53:01;;;;;;;37.37;16.30;;;-0.50;99.90;;;;;;4781740;30;20654;-81
2023/03/16 05:55:29;;;;;;;37.83;16.63;;;-0.40;99.90;;;;;;4786624;24;20249;-80
2023/03/16 05:57:57;;;;;;;34.90;16.50;;;-0.30;99.90;;;;;;4788669;29;20593;-80
2023/03/16 06:00:24;;;;;;;35.73;16.50;;;-0.30;99.90;;;;;;4788413;29;20207;-81
2023/03/16 06:02:51;;;;;;;34.03;16.40;;;-0.20;99.90;;;;;;4803581;29;20214;-82
2023/03/16 06:05:23;;;;;;;36.43;16.30;;;-0.10;99.90;;;;;;4792112;29;20196;-83
2023/03/16 06:07:51;;;;;;;34.27;16.60;;;0.00;99.90;;;;;;4786828;30;20211;-82
2023/03/16 06:10:20;;;;;;;36.63;15.83;;;-0.10;99.90;;;;;;4770254;30;20227;-80
2023/03/16 06:12:47;;;;;;;33.30;16.17;;;-0.10;99.90;;;;;;4786525;30;20228;-80
2023/03/16 06:15:14;;;;;;;37.17;15.97;;;0.10;99.90;;;;;;4770312;30;20193;-83
2023/03/16 06:17:41;;;;;;;34.43;15.30;;;0.10;99.90;;;;;;4771122;30;20218;-83
2023/03/16 06:20:12;;;;;;;34.00;15.50;;;0.20;99.90;;;;;;4770558;30;20257;-83
2023/03/16 06:22:41;;;;;;;32.53;14.40;;;0.40;99.90;;;;;;4769866;30;20208;-81
2023/03/16 06:25:09;;;;;;;34.93;15.33;;;0.40;99.90;;;;;;4786505;30;20215;-82
2023/03/16 06:27:37;;;;;;;30.60;14.53;;;0.40;99.90;;;;;;4770949;30;20204;-84
2023/03/16 06:30:06;;;;;;;29.07;14.80;;;0.30;99.90;;;;;;4770781;30;20242;-81
2023/03/16 06:32:34;;;;;;;35.53;14.97;;;0.40;99.90;;;;;;4770084;30;20224;-81
2023/03/16 06:35:02;;;;;;;37.77;15.27;;;0.40;99.90;;;;;;4770217;30;20204;-81
2023/03/16 06:37:30;;;;;;;30.20;14.70;;;0.50;99.90;;;;;;4770412;30;20217;-80
2023/03/16 06:39:58;;;;;;;32.00;15.13;;;0.60;99.90;;;;;;4770125;30;20289;-81
2023/03/16 06:42:25;;;;;;;33.70;14.73;;;0.80;99.90;;;;;;4770802;30;20204;-81
2023/03/16 06:44:52;;;;;;;33.67;14.73;;;1.00;99.90;;;;;;4786120;30;20204;-82
2023/03/16 06:47:20;;;;;;;34.87;14.93;;;1.20;99.90;;;;;;4770245;30;20208;-83
2023/03/16 06:49:47;;;;;;;37.53;14.07;;;1.30;99.90;;;;;;4769651;30;20296;-83
2023/03/16 06:52:14;;;;;;;33.53;15.20;;;1.20;99.90;;;;;;4784790;30;20754;-84
2023/03/16 06:54:41;;;;;;;28.83;14.57;;;1.40;99.90;;;;;;4772780;30;20264;-85
2023/03/16 06:58:00;;;;;;;34.17;15.27;;;1.50;99.90;;;;;;4787316;30;20250;-84
2023/03/16 07:03:18;;;;;;;31.60;14.17;;;1.20;99.90;;;;;;4785094;30;20217;-85
2023/03/16 07:06:33;;;;;;;26.93;13.83;;;1.40;99.90;;;;;;4785107;24;20235;-85
2023/03/16 07:09:25;;;;;;;29.13;13.67;;;1.50;99.90;;;;;;4755950;30;20216;-86
2023/03/16 07:12:09;;;;;;;29.03;14.40;;;1.60;99.90;;;;;;4710367;30;20258;-87
2023/03/16 07:14:36;;;;;;;28.07;13.67;;;1.50;99.90;;;;;;4731014;30;20252;-84
2023/03/16 07:17:03;;;;;;;26.97;13.90;;;1.70;99.90;;;;;;4704440;30;20291;-84
2023/03/16 07:19:52;;;;;;;28.33;14.07;;;1.70;99.90;;;;;;4767581;24;20236;-84
2023/03/16 07:22:20;;;;;;;29.87;13.03;;;1.90;99.90;;;;;;4804120;29;20254;-85
2023/03/16 07:24:56;;;;;;;24.63;12.80;;;1.90;99.90;;;;;;4804960;29;20742;-82
2023/03/16 07:27:24;;;;;;;32.33;14.30;;;2.00;99.90;;;;;;4807336;29;20319;-84
2023/03/16 07:29:51;;;;;;;29.47;14.63;;;2.10;99.90;;;;;;4806917;29;20226;-83
2023/03/16 07:32:18;;;;;;;30.33;14.70;;;2.20;99.90;;;;;;4810924;29;20298;-79
2023/03/16 07:34:45;;;;;;;29.33;14.70;;;2.20;99.90;;;;;;4806196;29;20212;-82
2023/03/16 07:37:12;;;;;;;30.30;14.37;;;2.30;99.90;;;;;;4809633;29;20680;-84
2023/03/16 07:39:40;;;;;;;34.40;14.27;;;2.40;99.90;;;;;;4791456;29;20257;-85
2023/03/16 07:42:08;;;;;;;34.90;14.70;;;2.30;99.90;;;;;;4808229;29;20207;-88
2023/03/16 07:44:35;;;;;;;33.10;14.90;;;2.40;99.90;;;;;;4805906;29;20203;-87
2023/03/16 07:47:02;;;;;;;33.03;15.67;;;2.30;99.90;;;;;;4807615;29;20226;-88
2023/03/16 07:49:30;;;;;;;31.63;14.60;;;2.40;99.90;;;;;;4807704;29;20192;-89
2023/03/16 07:51:57;;;;;;;30.03;14.10;;;2.50;99.90;;;;;;4807088;29;20265;-86
2023/03/16 07:54:24;;;;;;;35.27;14.00;;;2.40;99.90;;;;;;4807070;29;20205;-86
2023/03/16 07:56:53;;;;;;;29.30;13.53;;;2.60;99.90;;;;;;4806552;29;20216;-89
2023/03/16 07:59:20;;;;;;;27.13;12.87;;;2.70;99.90;;;;;;4806203;29;20665;-87
2023/03/16 08:01:47;;;;;;;27.43;12.17;;;3.00;99.90;;;;;;4808594;29;20243;-89
2023/03/16 08:04:14;;;;;;;27.07;12.13;;;2.90;99.90;;;;;;4809014;29;20268;-86
2023/03/16 08:06:41;;;;;;;25.80;12.33;;;2.90;99.90;;;;;;4810804;29;20305;-84
2023/03/16 08:09:08;;;;;;;24.60;11.57;;;3.00;99.90;;;;;;4806001;29;20204;-84
2023/03/16 08:11:35;;;;;;;26.23;11.03;;;3.10;99.90;;;;;;4793188;29;20239;-82
2023/03/16 08:14:09;;;;;;;20.30;10.17;;;3.20;99.90;;;;;;4791042;30;20213;-88
2023/03/16 08:16:36;;;;;;;22.33;11.03;;;3.20;99.90;;;;;;4789046;30;20208;-83
2023/03/16 08:19:03;;;;;;;23.60;11.07;;;3.60;99.90;;;;;;4786577;30;20241;-83
2023/03/16 08:21:45;;;;;;;26.43;10.87;;;3.30;99.90;;;;;;4787662;30;20224;-86
2023/03/16 08:27:21;;;;;;;19.53;10.00;;;4.90;99.90;;;;;;5165808;24;20245;-85
2023/03/16 08:30:32;;;;;;;22.40;10.67;;;5.70;99.90;;;;;;4796553;29;20191;-87
2023/03/16 08:33:01;;;;;;;15.13;7.60;;;6.50;99.90;;;;;;4808298;29;20235;-90
2023/03/16 08:35:31;;;;;;;19.80;9.07;;;6.70;99.90;;;;;;4796983;29;20236;-85
2023/03/16 08:38:01;;;;;;;18.80;9.57;;;7.00;99.90;;;;;;4807111;29;20211;-83
2023/03/16 08:40:29;;;;;;;19.07;10.00;;;7.30;99.90;;;;;;5036978;24;20205;-85
2023/03/16 08:42:57;;;;;;;22.00;11.63;;;7.20;99.90;;;;;;4789684;29;20219;-82
2023/03/16 08:45:24;;;;;;;17.70;9.93;;;7.10;99.90;;;;;;4782481;29;20210;-82
2023/03/16 08:47:52;;;;;;;20.53;10.37;;;7.40;99.90;;;;;;4785042;29;20204;-83
2023/03/16 08:50:19;;;;;;;19.33;10.27;;;6.90;99.90;;;;;;4787471;29;20206;-82
2023/03/16 08:52:47;;;;;;;20.50;10.47;;;7.00;99.90;;;;;;4788657;29;20234;-86
2023/03/16 08:55:15;;;;;;;21.10;10.50;;;7.10;99.90;;;;;;5533985;24;20458;-81
2023/03/16 08:57:44;;;;;;;19.40;11.47;;;7.50;99.90;;;;;;4822140;29;20203;-84
2023/03/16 09:00:13;;;;;;;19.27;9.70;;;7.80;99.90;;;;;;4825074;29;20229;-82
2023/03/16 09:02:44;;;;;;;20.90;10.37;;;7.50;99.90;;;;;;4807933;29;20652;-83
2023/03/16 09:05:13;;;;;;;15.87;8.67;;;7.70;99.90;;;;;;4815312;29;20218;-82
2023/03/16 09:07:42;;;;;;;15.77;7.93;;;7.90;99.90;;;;;;4821155;29;20299;-81
2023/03/16 09:10:14;;;;;;;19.47;8.40;;;8.00;99.90;;;;;;4812925;29;20274;-84
2023/03/16 09:12:42;;;;;;;15.33;8.00;;;8.00;99.90;;;;;;4789641;29;20681;-82
2023/03/16 09:15:38;;;;;;;11.20;6.43;;;8.10;99.90;;;;;;4792891;29;20195;-81
2023/03/16 09:18:05;;;;;;;14.57;7.10;;;8.40;99.90;;;;;;4804345;29;20211;-83
2023/03/16 09:20:33;;;;;;;14.60;6.97;;;8.20;99.90;;;;;;4804990;29;20317;-79
2023/03/16 09:22:59;;;;;;;12.53;6.40;;;8.60;99.90;;;;;;4789129;29;20200;-80
2023/03/16 09:25:26;;;;;;;13.07;5.63;;;9.30;99.90;;;;;;4789255;29;20216;-82
2023/03/16 09:27:54;;;;;;;10.37;5.47;;;8.90;99.90;;;;;;4802946;29;20675;-82
2023/03/16 09:30:21;;;;;;;14.43;6.37;;;9.00;99.90;;;;;;4816572;29;20200;-81
2023/03/16 09:32:49;;;;;;;13.43;6.23;;;9.10;99.90;;;;;;4804876;29;20259;-79
2023/03/16 09:35:19;;;;;;;13.40;6.00;;;9.10;99.90;;;;;;4791433;29;20229;-82
2023/03/16 09:37:46;;;;;;;12.73;6.30;;;9.40;99.90;;;;;;4791054;29;20757;-76
2023/03/16 09:40:32;;;;;;;12.00;5.67;;;9.70;99.90;;;;;;4807175;29;20203;-81
2023/03/16 09:43:02;;;;;;;9.60;5.70;;;10.30;99.90;;;;;;4806675;29;20214;-80
2023/03/16 09:45:58;;;;;;;10.27;5.70;;;10.40;99.90;;;;;;4806900;29;20191;-84
2023/03/16 09:48:30;;;;;;;11.63;5.00;;;9.90;99.90;;;;;;4806940;29;20298;-81
2023/03/16 09:50:58;;;;;;;12.57;5.20;;;9.20;99.90;;;;;;4806901;29;20218;-82
2023/03/16 09:53:37;;;;;;;8.37;4.50;;;9.70;99.90;;;;;;4823391;29;20318;-80
2023/03/16 09:56:36;;;;;;;7.07;3.77;;;10.00;99.90;;;;;;4806705;29;20234;-80
2023/03/16 09:59:12;;;;;;;10.00;3.57;;;10.50;99.90;;;;;;4806827;29;20568;-79
2023/03/16 10:01:51;;;;;;;7.20;3.40;;;10.60;99.90;;;;;;4806806;29;20222;-82
2023/03/16 10:04:39;;;;;;;6.67;3.20;;;10.80;99.90;;;;;;4807978;29;20199;-78
2023/03/16 10:07:14;;;;;;;6.23;3.10;;;10.60;99.90;;;;;;4813628;29;20212;-80
2023/03/16 10:09:48;;;;;;;6.80;3.20;;;10.60;99.90;;;;;;4804722;29;20615;-82
2023/03/16 10:12:15;;;;;;;6.60;3.00;;;10.00;99.90;;;;;;4788917;29;20223;-82
2023/03/16 10:14:59;;;;;;;8.50;3.43;;;9.30;99.90;;;;;;4788301;29;20353;-82
2023/03/16 10:17:44;;;;;;;6.33;3.17;;;8.90;99.90;;;;;;4804712;29;20288;-79
2023/03/16 10:20:17;;;;;;;7.27;2.70;;;8.70;99.90;;;;;;4804623;29;20198;-77
2023/03/16 10:22:46;;;;;;;6.23;3.07;;;9.00;99.90;;;;;;4788523;29;20216;-81
2023/03/16 10:25:43;;;;;;;7.80;3.30;;;8.90;99.90;;;;;;4788618;29;20212;-80
2023/03/16 10:28:15;;;;;;;7.27;2.90;;;8.90;99.90;;;;;;4788803;29;20222;-80
2023/03/16 10:30:42;;;;;;;6.03;2.97;;;8.60;99.90;;;;;;4804815;29;20198;-82
2023/03/16 10:33:19;;;;;;;6.40;2.47;;;8.40;99.90;;;;;;4804609;29;20238;-81
2023/03/16 10:35:47;;;;;;;7.20;2.33;;;8.10;99.90;;;;;;4804789;29;20294;-80
2023/03/16 10:38:39;;;;;;;4.80;2.20;;;7.80;99.90;;;;;;4806645;29;20218;-84
2023/03/16 10:41:21;;;;;;;6.10;2.00;;;7.40;99.90;;;;;;4804121;29;20275;-86
2023/03/16 10:43:54;;;;;;;14.30;2.80;;;6.70;99.90;;;;;;4788748;29;20557;-84
2023/03/16 10:46:23;;;;;;;5.63;2.60;;;7.00;99.90;;;;;;4799359;29;20272;-81
2023/03/16 10:48:53;;;;;;;7.70;2.30;;;7.80;99.90;;;;;;4791393;29;20206;-80
2023/03/16 10:51:31;;;;;;;5.43;2.30;;;8.30;99.90;;;;;;4804517;29;20247;-83
2023/03/16 10:54:14;;;;;;;3.67;2.10;;;8.70;99.90;;;;;;4788207;29;20257;-78
2023/03/16 10:56:41;;;;;;;6.50;2.70;;;8.80;99.90;;;;;;4787740;29;20645;-81
2023/03/16 10:59:14;;;;;;;6.07;2.80;;;9.10;99.90;;;;;;4805862;29;20203;-78
2023/03/16 11:01:47;;;;;;;6.03;2.70;;;9.20;99.90;;;;;;4791847;29;20536;-78
2023/03/16 11:04:16;;;;;;;6.90;3.00;;;9.90;99.90;;;;;;4793663;29;20654;-79
2023/03/16 11:06:53;;;;;;;8.47;3.33;;;10.40;99.90;;;;;;4791334;29;20211;-76
2023/03/16 11:09:25;;;;;;;8.73;3.60;;;10.70;99.90;;;;;;4791108;29;20624;-78
2023/03/16 11:11:52;;;;;;;9.33;3.83;;;10.90;97.20;;;;;;4791646;29;20217;-76
2023/03/16 11:14:27;;;;;;;10.07;4.03;;;10.60;97.20;;;;;;4790764;29;20208;-77
2023/03/16 11:17:18;;;;;;;7.30;3.60;;;10.10;97.30;;;;;;4790858;29;20753;-78
2023/03/16 11:20:00;;;;;;;9.03;4.30;;;10.20;99.90;;;;;;4791357;29;20293;-78
2023/03/16 11:22:28;;;;;;;7.53;3.83;;;10.10;97.90;;;;;;4790816;29;20208;-78
2023/03/16 11:25:01;;;;;;;9.20;3.57;;;9.70;99.90;;;;;;4806973;29;20200;-79
2023/03/16 11:27:28;;;;;;;9.63;3.70;;;10.10;99.90;;;;;;4790991;29;20729;-80
2023/03/16 11:30:04;;;;;;;7.80;3.47;;;9.90;99.90;;;;;;4806858;29;20283;-80
2023/03/16 11:32:36;;;;;;;11.07;3.03;;;9.20;99.90;;;;;;4807465;29;20219;-80
2023/03/16 11:35:16;;;;;;;9.60;3.73;;;8.90;99.90;;;;;;4807224;29;20666;-82
2023/03/16 11:38:18;;;;;;;9.33;3.60;;;8.20;99.90;;;;;;4817619;29;20202;-83
2023/03/16 11:40:55;;;;;;;10.93;3.80;;;8.00;99.90;;;;;;4806759;29;20240;-82
2023/03/16 11:43:28;;;;;;;9.00;3.73;;;8.20;99.90;;;;;;4793271;29;20234;-81
2023/03/16 11:46:21;;;;;;;9.90;3.73;;;8.90;99.90;;;;;;4776567;29;20570;-79
2023/03/16 11:49:06;;;;;;;9.97;4.27;;;10.10;99.90;;;;;;4776768;29;20253;-81
2023/03/16 11:51:58;;;;;;;9.13;4.17;;;10.80;99.90;;;;;;4790632;29;20246;-82
2023/03/16 11:55:07;;;;;;;8.37;4.03;;;10.20;99.90;;;;;;4790390;29;20299;-84
2023/03/16 11:58:04;;;;;;;8.83;3.83;;;9.40;99.90;;;;;;4769856;30;20209;-84
2023/03/16 12:00:54;;;;;;;11.03;4.37;;;8.90;99.90;;;;;;4769601;30;20221;-84
2023/03/16 12:03:52;;;;;;;9.80;3.70;;;8.00;99.90;;;;;;4769565;30;20209;-83
2023/03/16 12:06:59;;;;;;;9.83;3.87;;;8.10;99.90;;;;;;4769293;30;20212;-83
2023/03/16 12:09:41;;;;;;;9.77;3.33;;;7.80;99.90;;;;;;4697630;30;20207;-84
2023/03/16 12:12:20;;;;;;;10.10;2.80;;;7.30;99.90;;;;;;4687316;30;20240;-85
2023/03/16 12:15:20;;;;;;;8.33;3.27;;;7.20;99.90;;;;;;4699838;30;20817;-82
2023/03/16 12:17:50;;;;;;;8.37;2.70;;;7.00;99.90;;;;;;4708206;30;20302;-82
2023/03/16 12:20:27;;;;;;;9.67;2.77;;;7.00;99.90;;;;;;4700690;30;20228;-82
2023/03/16 12:23:06;;;;;;;11.90;3.53;;;7.30;99.90;;;;;;4711784;30;20221;-86
2023/03/16 12:25:41;;;;;;;7.80;2.80;;;7.90;99.90;;;;;;4794342;24;20341;-80
2023/03/16 12:28:28;;;;;;;10.40;2.60;;;8.70;99.90;;;;;;4759552;30;20217;-84
2023/03/16 12:31:13;;;;;;;8.83;2.67;;;8.40;99.90;;;;;;4791166;29;20293;-80
2023/03/16 12:33:46;;;;;;;10.00;2.80;;;8.60;99.90;;;;;;4792395;30;20250;-84
2023/03/16 12:36:35;;;;;;;9.00;3.00;;;8.20;99.90;;;;;;4786187;30;20243;-78
2023/03/16 12:39:10;;;;;;;6.83;2.73;;;8.00;99.90;;;;;;4786393;30;20586;-78
2023/03/16 12:41:50;;;;;;;10.40;3.20;;;7.90;99.90;;;;;;4772302;30;20209;-78
2023/03/16 12:44:35;;;;;;;7.77;3.53;;;7.70;99.90;;;;;;4787687;30;20208;-81
2023/03/16 12:47:11;;;;;;;11.93;3.27;;;7.70;99.90;;;;;;4779651;30;20210;-78
2023/03/16 12:49:38;;;;;;;8.43;3.13;;;7.50;99.90;;;;;;4783919;30;20211;-80
2023/03/16 12:52:10;;;;;;;11.33;3.70;;;7.30;99.90;;;;;;4772458;29;20208;-78
2023/03/16 12:54:50;;;;;;;13.13;3.97;;;7.30;99.90;;;;;;4769901;30;20261;-79
2023/03/16 12:57:19;;;;;;;12.37;4.03;;;7.30;99.90;;;;;;4768911;30;20239;-78
2023/03/16 12:59:51;;;;;;;10.40;3.67;;;6.90;99.90;;;;;;4769486;30;20201;-79
2023/03/16 13:02:33;;;;;;;13.23;4.20;;;6.70;99.90;;;;;;4769416;30;20691;-77
2023/03/16 13:05:13;;;;;;;13.57;3.70;;;6.60;99.90;;;;;;4769206;30;20219;-81
2023/03/16 13:08:02;;;;;;;10.53;3.67;;;6.50;99.90;;;;;;4780695;30;20673;-83
2023/03/16 13:10:30;;;;;;;11.77;4.03;;;6.50;99.90;;;;;;4770652;30;20271;-84
2023/03/16 13:13:11;;;;;;;13.10;4.33;;;6.40;99.90;;;;;;4768211;30;20755;-83